Morton, Mississippi
Current Conditions -  °F | °C
As of 10:54 PM on Friday 21 Nov 2014 (Local Time) from KJAN Reporting Station
Clear Clear  
Wind Chill: 50°   Ceiling: Unl
Heat Index: 50°   Visibility: 10mi
Dew Point: 45°   Wind: 6mph
Humidity: 83%   Direction: 140°SE
Pressure: 30.3"   Gusts: NA
Location:  32.35°N, 89.65°W
Report Text: KJAN 220454Z 14005KT 10SM CLR 10/07 A3030 RMK AO2 SLP259 LAST AUGMENTED OBSERVATION UNTIL 1200Z T01000072
Loading
Personal Weather Stations






























Interactive Weather Map New forecast layout! Learn more

10-Day Weather Forecast

Advertisements
Track Severe Weather on mobile